createdAt,value
2017-09-24T00:03:34.159Z,0
2017-09-24T00:13:48.559Z,0
2017-09-24T00:24:02.710Z,0
2017-09-24T00:34:16.914Z,0
2017-09-24T00:44:31.268Z,0
2017-09-24T00:54:46.144Z,0
2017-09-24T01:04:59.692Z,0
2017-09-24T01:15:14.121Z,0
2017-09-24T01:25:27.402Z,0
2017-09-24T01:35:37.615Z,0
2017-09-24T01:45:52.354Z,0
2017-09-24T01:56:05.531Z,0
2017-09-24T02:06:19.294Z,0
2017-09-24T02:16:31.931Z,0
2017-09-24T02:26:45.451Z,0
2017-09-24T02:36:58.563Z,0
2017-09-24T02:47:12.280Z,0
2017-09-24T02:57:26.629Z,0
2017-09-24T03:07:40.711Z,0
2017-09-24T03:17:53.809Z,0
2017-09-24T03:28:07.492Z,0
2017-09-24T03:38:22.237Z,0
2017-09-24T03:48:32.455Z,0
2017-09-24T03:58:46.576Z,0
2017-09-24T04:09:01.277Z,0
2017-09-24T04:19:15.449Z,0
2017-09-24T04:29:30.537Z,0
2017-09-24T04:39:44.999Z,0
2017-09-24T04:49:58.240Z,0
2017-09-24T05:00:11.691Z,0
2017-09-24T05:10:24.828Z,0
2017-09-24T05:20:39.315Z,0
2017-09-24T05:30:53.891Z,0
2017-09-24T05:41:08.539Z,0
2017-09-24T05:51:22.771Z,0
2017-09-24T06:01:32.989Z,0
2017-09-24T06:11:46.830Z,0
2017-09-24T06:22:00.159Z,0
2017-09-24T06:32:13.805Z,0
2017-09-24T06:42:28.430Z,0
2017-09-24T06:52:43.296Z,0
2017-09-24T07:02:58.357Z,0
2017-09-24T07:13:12.046Z,0
2017-09-24T07:23:26.255Z,0
2017-09-24T07:33:40.921Z,0
2017-09-24T07:43:55.432Z,0
2017-09-24T07:54:09.605Z,0
2017-09-24T08:04:23.318Z,0
2017-09-24T08:14:33.601Z,0
2017-09-24T08:24:47.404Z,0
2017-09-24T08:35:01.480Z,0
2017-09-24T08:45:15.085Z,0
2017-09-24T08:55:29.856Z,0
2017-09-24T09:05:44.003Z,0
2017-09-24T09:15:57.570Z,11.3
2017-09-24T09:26:10.808Z,30.9
2017-09-24T09:36:26.009Z,50.7
2017-09-24T09:46:39.235Z,64.4
2017-09-24T09:56:52.494Z,75.4
2017-09-24T10:07:06.783Z,84
2017-09-24T10:17:20.414Z,89.1
2017-09-24T10:27:34.356Z,90.3
2017-09-24T10:37:48.406Z,91.9
2017-09-24T10:47:58.834Z,91.8
2017-09-24T10:58:12.568Z,92.8
2017-09-24T11:08:27.382Z,94.3
2017-09-24T11:18:40.971Z,92.7
2017-09-24T11:28:55.897Z,92.4
2017-09-24T11:39:09.456Z,92.3
2017-09-24T11:49:24.458Z,91.7
2017-09-24T11:59:39.188Z,91.3
2017-09-24T12:09:52.511Z,92.1
2017-09-24T12:20:06.965Z,92.8
2017-09-24T12:30:21.170Z,88.8
2017-09-24T12:40:35.378Z,88
2017-09-24T12:50:49.195Z,84.6
2017-09-24T13:00:59.605Z,83.8
2017-09-24T13:11:12.925Z,84.8
2017-09-24T13:21:26.529Z,88.7
2017-09-24T13:31:39.814Z,90.2
2017-09-24T13:41:53.815Z,86.5
2017-09-24T13:52:07.858Z,85
2017-09-24T14:02:22.652Z,84.1
2017-09-24T14:12:36.495Z,82.8
2017-09-24T14:22:51.676Z,83.6
2017-09-24T14:33:05.299Z,83.4
2017-09-24T14:43:18.949Z,83.8
2017-09-24T14:53:33.685Z,84.1
2017-09-24T15:03:48.954Z,84.7
2017-09-24T15:13:59.252Z,88
2017-09-24T15:24:12.697Z,90.3
2017-09-24T15:34:26.823Z,90.7
2017-09-24T15:44:41.021Z,89.4
2017-09-24T15:54:54.493Z,88.5
2017-09-24T16:05:07.732Z,87.2
2017-09-24T16:15:21.980Z,84.1
2017-09-24T16:25:35.754Z,81.8
2017-09-24T16:35:50.127Z,79.9
2017-09-24T16:46:04.545Z,78.2
2017-09-24T16:56:18.734Z,74.2
2017-09-24T17:06:32.051Z,71.3
2017-09-24T17:16:46.722Z,66.7
2017-09-24T17:26:57.139Z,62.9
2017-09-24T17:37:11.231Z,58.8
2017-09-24T17:47:25.603Z,54.6
2017-09-24T17:57:39.731Z,51.1
2017-09-24T18:07:54.277Z,46
2017-09-24T18:18:08.488Z,38.1
2017-09-24T18:28:22.594Z,33.2
2017-09-24T18:38:37.415Z,30.3
2017-09-24T18:48:52.327Z,27.3
2017-09-24T18:59:06.463Z,23.7
2017-09-24T19:09:20.271Z,21.5
2017-09-24T19:19:35.263Z,19.3
2017-09-24T19:29:49.374Z,17.5
2017-09-24T19:39:59.634Z,15.8
2017-09-24T19:50:13.033Z,14.9
2017-09-24T20:00:27.583Z,13.4
2017-09-24T20:10:41.451Z,11.7
2017-09-24T20:20:55.844Z,9.3
2017-09-24T20:31:10.448Z,5.9
2017-09-24T20:41:24.614Z,4
2017-09-24T20:51:37.815Z,3.9
2017-09-24T21:01:50.996Z,4.1
2017-09-24T21:12:05.057Z,4.4
2017-09-24T21:22:18.953Z,4.1
2017-09-24T21:32:33.827Z,3.8
2017-09-24T21:42:48.906Z,3.2
2017-09-24T21:52:59.173Z,2.6
2017-09-24T22:03:13.902Z,2.6
2017-09-24T22:13:28.828Z,2.3
2017-09-24T22:23:42.412Z,1.9
2017-09-24T22:33:56.130Z,1.9
2017-09-24T22:44:10.374Z,2.2
2017-09-24T22:54:23.823Z,2.2
2017-09-24T23:04:36.998Z,2.2
2017-09-24T23:14:50.717Z,1.8
2017-09-24T23:25:04.356Z,1.5
2017-09-24T23:35:18.500Z,2.2
2017-09-24T23:45:32.280Z,2.3
2017-09-24T23:55:46.008Z,2.1
